sensor_id;sensor_type;location;lat;lon;timestamp;temperature;humidity
21612;DHT22;47005;52.292;13.452;2023-06-22T00:00:52;22.00;96.50
21612;DHT22;47005;52.292;13.452;2023-06-22T00:03:19;22.00;96.50
21612;DHT22;47005;52.292;13.452;2023-06-22T00:05:45;21.90;96.50
21612;DHT22;47005;52.292;13.452;2023-06-22T00:08:11;21.90;96.60
21612;DHT22;47005;52.292;13.452;2023-06-22T00:10:37;21.90;96.80
21612;DHT22;47005;52.292;13.452;2023-06-22T00:13:03;21.90;96.80
21612;DHT22;47005;52.292;13.452;2023-06-22T00:15:29;21.90;96.80
21612;DHT22;47005;52.292;13.452;2023-06-22T00:17:55;21.80;96.80
21612;DHT22;47005;52.292;13.452;2023-06-22T00:20:22;21.80;96.80
21612;DHT22;47005;52.292;13.452;2023-06-22T00:22:56;21.80;96.90
21612;DHT22;47005;52.292;13.452;2023-06-22T00:25:22;21.80;96.90
21612;DHT22;47005;52.292;13.452;2023-06-22T00:27:48;21.80;96.90
21612;DHT22;47005;52.292;13.452;2023-06-22T00:30:17;21.80;96.90
21612;DHT22;47005;52.292;13.452;2023-06-22T00:32:44;21.70;96.90
21612;DHT22;47005;52.292;13.452;2023-06-22T00:35:10;21.70;96.90
21612;DHT22;47005;52.292;13.452;2023-06-22T00:37:36;21.70;96.90
21612;DHT22;47005;52.292;13.452;2023-06-22T00:40:05;21.70;97.00
21612;DHT22;47005;52.292;13.452;2023-06-22T00:42:33;21.70;97.00
21612;DHT22;47005;52.292;13.452;2023-06-22T00:44:58;21.70;97.00
21612;DHT22;47005;52.292;13.452;2023-06-22T00:47:24;21.70;97.00
21612;DHT22;47005;52.292;13.452;2023-06-22T00:49:50;21.70;97.00
21612;DHT22;47005;52.292;13.452;2023-06-22T00:52:22;21.60;97.00
21612;DHT22;47005;52.292;13.452;2023-06-22T00:54:52;21.60;97.10
21612;DHT22;47005;52.292;13.452;2023-06-22T00:57:19;21.60;97.10
21612;DHT22;47005;52.292;13.452;2023-06-22T00:59:46;21.60;97.10
21612;DHT22;47005;52.292;13.452;2023-06-22T01:02:13;21.60;97.10
21612;DHT22;47005;52.292;13.452;2023-06-22T01:04:39;21.60;97.10
21612;DHT22;47005;52.292;13.452;2023-06-22T01:07:30;21.60;97.20
21612;DHT22;47005;52.292;13.452;2023-06-22T01:12:58;21.60;97.20
21612;DHT22;47005;52.292;13.452;2023-06-22T01:15:40;21.50;97.20
21612;DHT22;47005;52.292;13.452;2023-06-22T01:18:09;21.50;97.30
21612;DHT22;47005;52.292;13.452;2023-06-22T01:20:37;21.50;97.40
21612;DHT22;47005;52.292;13.452;2023-06-22T01:25:51;21.50;97.40
21612;DHT22;47005;52.292;13.452;2023-06-22T01:31:09;21.50;97.40
21612;DHT22;47005;52.292;13.452;2023-06-22T01:33:39;21.50;97.40
21612;DHT22;47005;52.292;13.452;2023-06-22T01:36:06;21.50;97.60
21612;DHT22;47005;52.292;13.452;2023-06-22T01:38:33;21.50;97.70
21612;DHT22;47005;52.292;13.452;2023-06-22T01:41:00;21.50;97.60
21612;DHT22;47005;52.292;13.452;2023-06-22T01:43:27;21.50;97.70
21612;DHT22;47005;52.292;13.452;2023-06-22T01:45:54;21.50;97.70
21612;DHT22;47005;52.292;13.452;2023-06-22T01:48:21;21.50;97.70
21612;DHT22;47005;52.292;13.452;2023-06-22T01:50:47;21.50;97.60
21612;DHT22;47005;52.292;13.452;2023-06-22T01:53:13;21.50;97.60
21612;DHT22;47005;52.292;13.452;2023-06-22T01:55:39;21.50;97.60
21612;DHT22;47005;52.292;13.452;2023-06-22T01:58:05;21.50;97.50
21612;DHT22;47005;52.292;13.452;2023-06-22T02:00:34;21.50;97.60
21612;DHT22;47005;52.292;13.452;2023-06-22T02:03:11;21.50;97.60
21612;DHT22;47005;52.292;13.452;2023-06-22T02:05:54;21.50;97.60
21612;DHT22;47005;52.292;13.452;2023-06-22T02:08:35;21.50;97.60
21612;DHT22;47005;52.292;13.452;2023-06-22T02:11:03;21.50;97.50
21612;DHT22;47005;52.292;13.452;2023-06-22T02:13:30;21.50;97.60
21612;DHT22;47005;52.292;13.452;2023-06-22T02:15:57;21.50;97.60
21612;DHT22;47005;52.292;13.452;2023-06-22T02:18:23;21.50;97.60
21612;DHT22;47005;52.292;13.452;2023-06-22T02:20:49;21.50;97.60
21612;DHT22;47005;52.292;13.452;2023-06-22T02:23:14;21.50;97.60
21612;DHT22;47005;52.292;13.452;2023-06-22T02:25:40;21.50;97.70
21612;DHT22;47005;52.292;13.452;2023-06-22T02:28:09;21.50;97.60
21612;DHT22;47005;52.292;13.452;2023-06-22T02:30:35;21.40;97.60
21612;DHT22;47005;52.292;13.452;2023-06-22T02:33:01;21.40;97.60
21612;DHT22;47005;52.292;13.452;2023-06-22T02:35:28;21.40;97.60
21612;DHT22;47005;52.292;13.452;2023-06-22T02:37:58;21.40;97.60
21612;DHT22;47005;52.292;13.452;2023-06-22T02:40:25;21.40;97.70
21612;DHT22;47005;52.292;13.452;2023-06-22T02:42:50;21.40;97.90
21612;DHT22;47005;52.292;13.452;2023-06-22T02:45:16;21.40;98.00
21612;DHT22;47005;52.292;13.452;2023-06-22T02:47:42;21.40;97.90
21612;DHT22;47005;52.292;13.452;2023-06-22T02:50:07;21.40;98.10
21612;DHT22;47005;52.292;13.452;2023-06-22T02:52:33;21.40;98.00
21612;DHT22;47005;52.292;13.452;2023-06-22T02:54:59;21.40;98.00
21612;DHT22;47005;52.292;13.452;2023-06-22T02:57:25;21.40;98.00
21612;DHT22;47005;52.292;13.452;2023-06-22T02:59:51;21.40;98.10
21612;DHT22;47005;52.292;13.452;2023-06-22T03:02:17;21.30;98.10
21612;DHT22;47005;52.292;13.452;2023-06-22T03:04:43;21.30;98.00
21612;DHT22;47005;52.292;13.452;2023-06-22T03:07:08;21.30;98.10
21612;DHT22;47005;52.292;13.452;2023-06-22T03:09:34;21.30;98.20
21612;DHT22;47005;52.292;13.452;2023-06-22T03:12:00;21.30;98.10
21612;DHT22;47005;52.292;13.452;2023-06-22T03:14:27;21.30;98.10
21612;DHT22;47005;52.292;13.452;2023-06-22T03:16:53;21.30;98.10
21612;DHT22;47005;52.292;13.452;2023-06-22T03:19:18;21.30;98.10
21612;DHT22;47005;52.292;13.452;2023-06-22T03:21:45;21.30;98.40
21612;DHT22;47005;52.292;13.452;2023-06-22T03:24:11;21.30;98.60
21612;DHT22;47005;52.292;13.452;2023-06-22T03:26:36;21.30;98.80
21612;DHT22;47005;52.292;13.452;2023-06-22T03:29:02;21.30;98.60
21612;DHT22;47005;52.292;13.452;2023-06-22T03:31:28;21.20;98.70
21612;DHT22;47005;52.292;13.452;2023-06-22T03:33:54;21.20;98.70
21612;DHT22;47005;52.292;13.452;2023-06-22T03:36:20;21.20;98.50
21612;DHT22;47005;52.292;13.452;2023-06-22T03:38:46;21.20;98.50
21612;DHT22;47005;52.292;13.452;2023-06-22T03:41:12;21.20;98.60
21612;DHT22;47005;52.292;13.452;2023-06-22T03:43:38;21.20;98.70
21612;DHT22;47005;52.292;13.452;2023-06-22T03:46:04;21.20;98.60
21612;DHT22;47005;52.292;13.452;2023-06-22T03:48:30;21.20;98.60
21612;DHT22;47005;52.292;13.452;2023-06-22T03:50:56;21.20;99.10
21612;DHT22;47005;52.292;13.452;2023-06-22T03:53:21;21.10;99.10
21612;DHT22;47005;52.292;13.452;2023-06-22T03:55:51;21.10;99.70
21612;DHT22;47005;52.292;13.452;2023-06-22T03:58:18;21.10;99.20
21612;DHT22;47005;52.292;13.452;2023-06-22T04:00:50;21.10;99.20
21612;DHT22;47005;52.292;13.452;2023-06-22T04:03:16;21.20;99.10
21612;DHT22;47005;52.292;13.452;2023-06-22T04:05:44;21.10;99.90
21612;DHT22;47005;52.292;13.452;2023-06-22T04:08:10;21.10;99.80
21612;DHT22;47005;52.292;13.452;2023-06-22T04:10:38;21.10;99.70
21612;DHT22;47005;52.292;13.452;2023-06-22T04:13:04;21.10;99.70
21612;DHT22;47005;52.292;13.452;2023-06-22T04:15:29;21.10;99.70
21612;DHT22;47005;52.292;13.452;2023-06-22T04:17:56;21.20;99.60
21612;DHT22;47005;52.292;13.452;2023-06-22T04:20:22;21.10;99.60
21612;DHT22;47005;52.292;13.452;2023-06-22T04:22:48;21.10;99.50
21612;DHT22;47005;52.292;13.452;2023-06-22T04:25:13;21.20;99.60
21612;DHT22;47005;52.292;13.452;2023-06-22T04:27:39;21.10;99.60
21612;DHT22;47005;52.292;13.452;2023-06-22T04:30:07;21.10;99.60
21612;DHT22;47005;52.292;13.452;2023-06-22T04:32:36;21.10;99.70
21612;DHT22;47005;52.292;13.452;2023-06-22T04:35:02;21.20;99.90
21612;DHT22;47005;52.292;13.452;2023-06-22T04:37:30;21.20;99.90
21612;DHT22;47005;52.292;13.452;2023-06-22T04:39:56;21.20;99.70
21612;DHT22;47005;52.292;13.452;2023-06-22T04:42:22;21.20;99.90
21612;DHT22;47005;52.292;13.452;2023-06-22T04:44:48;21.20;99.80
21612;DHT22;47005;52.292;13.452;2023-06-22T04:47:13;21.20;99.90
21612;DHT22;47005;52.292;13.452;2023-06-22T04:49:39;21.20;99.90
21612;DHT22;47005;52.292;13.452;2023-06-22T04:52:07;21.30;99.90
21612;DHT22;47005;52.292;13.452;2023-06-22T04:54:34;21.30;99.90
21612;DHT22;47005;52.292;13.452;2023-06-22T04:57:07;21.30;99.90
21612;DHT22;47005;52.292;13.452;2023-06-22T04:59:37;21.30;99.90
21612;DHT22;47005;52.292;13.452;2023-06-22T05:02:04;21.30;99.90
21612;DHT22;47005;52.292;13.452;2023-06-22T05:04:31;21.40;99.90
21612;DHT22;47005;52.292;13.452;2023-06-22T05:06:58;21.40;99.90
21612;DHT22;47005;52.292;13.452;2023-06-22T05:09:24;21.40;99.90
21612;DHT22;47005;52.292;13.452;2023-06-22T05:11:50;21.50;99.90
21612;DHT22;47005;52.292;13.452;2023-06-22T05:14:16;21.50;99.80
21612;DHT22;47005;52.292;13.452;2023-06-22T05:16:43;21.50;99.80
21612;DHT22;47005;52.292;13.452;2023-06-22T05:19:09;21.50;99.70
21612;DHT22;47005;52.292;13.452;2023-06-22T05:21:35;21.50;99.80
21612;DHT22;47005;52.292;13.452;2023-06-22T05:24:00;21.60;99.80
21612;DHT22;47005;52.292;13.452;2023-06-22T05:26:32;21.60;99.80
21612;DHT22;47005;52.292;13.452;2023-06-22T05:28:58;21.60;99.80
21612;DHT22;47005;52.292;13.452;2023-06-22T05:31:25;21.70;99.80
21612;DHT22;47005;52.292;13.452;2023-06-22T05:33:52;21.70;99.70
21612;DHT22;47005;52.292;13.452;2023-06-22T05:36:18;21.70;99.60
21612;DHT22;47005;52.292;13.452;2023-06-22T05:38:45;21.80;99.70
21612;DHT22;47005;52.292;13.452;2023-06-22T05:41:11;21.80;99.60
21612;DHT22;47005;52.292;13.452;2023-06-22T05:43:37;21.80;99.50
21612;DHT22;47005;52.292;13.452;2023-06-22T05:46:04;21.90;99.40
21612;DHT22;47005;52.292;13.452;2023-06-22T05:48:29;21.90;99.40
21612;DHT22;47005;52.292;13.452;2023-06-22T05:50:55;21.90;99.40
21612;DHT22;47005;52.292;13.452;2023-06-22T05:53:21;21.90;99.30
21612;DHT22;47005;52.292;13.452;2023-06-22T05:55:47;22.00;99.40
21612;DHT22;47005;52.292;13.452;2023-06-22T05:58:13;22.00;99.20
21612;DHT22;47005;52.292;13.452;2023-06-22T06:00:39;22.10;99.10
21612;DHT22;47005;52.292;13.452;2023-06-22T06:03:06;22.10;98.50
21612;DHT22;47005;52.292;13.452;2023-06-22T06:05:33;22.10;98.50
21612;DHT22;47005;52.292;13.452;2023-06-22T06:08:00;22.10;98.50
21612;DHT22;47005;52.292;13.452;2023-06-22T06:10:26;22.20;98.30
21612;DHT22;47005;52.292;13.452;2023-06-22T06:12:52;22.20;98.30
21612;DHT22;47005;52.292;13.452;2023-06-22T06:15:18;22.20;98.40
21612;DHT22;47005;52.292;13.452;2023-06-22T06:17:51;22.20;98.40
21612;DHT22;47005;52.292;13.452;2023-06-22T06:20:20;22.20;98.30
21612;DHT22;47005;52.292;13.452;2023-06-22T06:22:46;22.30;98.30
21612;DHT22;47005;52.292;13.452;2023-06-22T06:25:12;22.30;98.00
21612;DHT22;47005;52.292;13.452;2023-06-22T06:27:51;22.30;98.10
21612;DHT22;47005;52.292;13.452;2023-06-22T06:30:18;22.30;98.00
21612;DHT22;47005;52.292;13.452;2023-06-22T06:32:45;22.30;97.80
21612;DHT22;47005;52.292;13.452;2023-06-22T06:35:12;22.30;97.70
21612;DHT22;47005;52.292;13.452;2023-06-22T06:37:40;22.30;97.70
21612;DHT22;47005;52.292;13.452;2023-06-22T06:40:09;22.30;97.60
21612;DHT22;47005;52.292;13.452;2023-06-22T06:42:39;22.30;97.50
21612;DHT22;47005;52.292;13.452;2023-06-22T06:45:18;22.30;97.40
21612;DHT22;47005;52.292;13.452;2023-06-22T06:47:44;22.30;97.20
21612;DHT22;47005;52.292;13.452;2023-06-22T06:50:10;22.40;97.10
21612;DHT22;47005;52.292;13.452;2023-06-22T06:52:36;22.40;97.30
21612;DHT22;47005;52.292;13.452;2023-06-22T06:55:03;22.40;97.20
21612;DHT22;47005;52.292;13.452;2023-06-22T06:57:34;22.50;97.10
21612;DHT22;47005;52.292;13.452;2023-06-22T07:00:00;22.40;96.90
21612;DHT22;47005;52.292;13.452;2023-06-22T07:02:26;22.50;96.50
21612;DHT22;47005;52.292;13.452;2023-06-22T07:04:53;22.50;96.50
21612;DHT22;47005;52.292;13.452;2023-06-22T07:07:21;22.60;96.20
21612;DHT22;47005;52.292;13.452;2023-06-22T07:09:46;22.60;96.10
21612;DHT22;47005;52.292;13.452;2023-06-22T07:12:12;22.60;95.70
21612;DHT22;47005;52.292;13.452;2023-06-22T07:14:38;22.60;94.90
21612;DHT22;47005;52.292;13.452;2023-06-22T07:17:04;22.60;94.10
21612;DHT22;47005;52.292;13.452;2023-06-22T07:19:29;22.70;93.70
21612;DHT22;47005;52.292;13.452;2023-06-22T07:21:56;22.70;94.10
21612;DHT22;47005;52.292;13.452;2023-06-22T07:24:22;22.80;94.50
21612;DHT22;47005;52.292;13.452;2023-06-22T07:26:48;22.80;94.00
21612;DHT22;47005;52.292;13.452;2023-06-22T07:29:18;22.80;93.80
21612;DHT22;47005;52.292;13.452;2023-06-22T07:31:46;22.90;93.10
21612;DHT22;47005;52.292;13.452;2023-06-22T07:34:13;22.90;93.00
21612;DHT22;47005;52.292;13.452;2023-06-22T07:36:38;23.00;93.40
21612;DHT22;47005;52.292;13.452;2023-06-22T07:39:04;23.00;93.10
21612;DHT22;47005;52.292;13.452;2023-06-22T07:41:31;23.10;93.10
21612;DHT22;47005;52.292;13.452;2023-06-22T07:43:56;23.10;93.60
21612;DHT22;47005;52.292;13.452;2023-06-22T07:46:23;23.10;93.50
21612;DHT22;47005;52.292;13.452;2023-06-22T07:48:48;23.10;93.60
21612;DHT22;47005;52.292;13.452;2023-06-22T07:51:14;23.10;93.80
21612;DHT22;47005;52.292;13.452;2023-06-22T07:53:44;23.20;93.50
21612;DHT22;47005;52.292;13.452;2023-06-22T07:56:13;23.20;93.90
21612;DHT22;47005;52.292;13.452;2023-06-22T07:58:39;23.20;94.00
21612;DHT22;47005;52.292;13.452;2023-06-22T08:01:05;23.20;94.10
21612;DHT22;47005;52.292;13.452;2023-06-22T08:03:32;23.20;94.10
21612;DHT22;47005;52.292;13.452;2023-06-22T08:05:58;23.30;94.00
21612;DHT22;47005;52.292;13.452;2023-06-22T08:08:24;23.30;94.20
21612;DHT22;47005;52.292;13.452;2023-06-22T08:10:49;23.30;93.80
21612;DHT22;47005;52.292;13.452;2023-06-22T08:13:15;23.30;93.90
21612;DHT22;47005;52.292;13.452;2023-06-22T08:15:41;23.30;93.50
21612;DHT22;47005;52.292;13.452;2023-06-22T08:18:06;23.40;93.60
21612;DHT22;47005;52.292;13.452;2023-06-22T08:20:32;23.40;93.30
21612;DHT22;47005;52.292;13.452;2023-06-22T08:22:58;23.40;93.60
21612;DHT22;47005;52.292;13.452;2023-06-22T08:25:30;23.40;93.60
21612;DHT22;47005;52.292;13.452;2023-06-22T08:27:56;23.40;93.70
21612;DHT22;47005;52.292;13.452;2023-06-22T08:30:21;23.40;93.80
21612;DHT22;47005;52.292;13.452;2023-06-22T08:32:47;23.40;93.90
21612;DHT22;47005;52.292;13.452;2023-06-22T08:35:13;23.40;93.80
21612;DHT22;47005;52.292;13.452;2023-06-22T08:37:38;23.40;93.90
21612;DHT22;47005;52.292;13.452;2023-06-22T08:40:06;23.40;93.90
21612;DHT22;47005;52.292;13.452;2023-06-22T08:42:36;23.50;94.00
21612;DHT22;47005;52.292;13.452;2023-06-22T08:45:03;23.50;94.00
21612;DHT22;47005;52.292;13.452;2023-06-22T08:47:29;23.50;93.60
21612;DHT22;47005;52.292;13.452;2023-06-22T08:49:55;23.50;93.90
21612;DHT22;47005;52.292;13.452;2023-06-22T08:52:20;23.50;93.70
21612;DHT22;47005;52.292;13.452;2023-06-22T08:54:49;23.60;93.80
21612;DHT22;47005;52.292;13.452;2023-06-22T08:57:15;23.60;93.90
21612;DHT22;47005;52.292;13.452;2023-06-22T08:59:42;23.60;93.70
21612;DHT22;47005;52.292;13.452;2023-06-22T09:02:07;23.60;93.50
21612;DHT22;47005;52.292;13.452;2023-06-22T09:04:33;23.70;93.60
21612;DHT22;47005;52.292;13.452;2023-06-22T09:07:02;23.70;93.00
21612;DHT22;47005;52.292;13.452;2023-06-22T09:09:28;23.70;93.30
21612;DHT22;47005;52.292;13.452;2023-06-22T09:11:54;23.70;92.90
21612;DHT22;47005;52.292;13.452;2023-06-22T09:14:19;23.70;93.40
21612;DHT22;47005;52.292;13.452;2023-06-22T09:16:45;23.70;92.80
21612;DHT22;47005;52.292;13.452;2023-06-22T09:19:11;23.70;92.10
21612;DHT22;47005;52.292;13.452;2023-06-22T09:21:36;23.80;92.00
21612;DHT22;47005;52.292;13.452;2023-06-22T09:24:02;23.70;92.40
21612;DHT22;47005;52.292;13.452;2023-06-22T09:26:28;23.80;92.50
21612;DHT22;47005;52.292;13.452;2023-06-22T09:28:54;23.80;92.50
21612;DHT22;47005;52.292;13.452;2023-06-22T09:31:20;23.80;92.40
21612;DHT22;47005;52.292;13.452;2023-06-22T09:33:54;23.80;92.60
21612;DHT22;47005;52.292;13.452;2023-06-22T09:36:23;23.90;92.60
21612;DHT22;47005;52.292;13.452;2023-06-22T09:38:49;23.90;92.20
21612;DHT22;47005;52.292;13.452;2023-06-22T09:41:20;23.90;92.60
21612;DHT22;47005;52.292;13.452;2023-06-22T09:43:46;24.00;92.70
21612;DHT22;47005;52.292;13.452;2023-06-22T09:46:14;24.00;92.60
21612;DHT22;47005;52.292;13.452;2023-06-22T09:48:40;24.00;92.20
21612;DHT22;47005;52.292;13.452;2023-06-22T09:51:06;24.00;92.50
21612;DHT22;47005;52.292;13.452;2023-06-22T09:53:31;24.10;92.40
21612;DHT22;47005;52.292;13.452;2023-06-22T09:55:57;24.10;92.30
21612;DHT22;47005;52.292;13.452;2023-06-22T09:58:23;24.10;92.30
21612;DHT22;47005;52.292;13.452;2023-06-22T10:00:48;24.20;92.00
21612;DHT22;47005;52.292;13.452;2023-06-22T10:03:14;24.20;91.90
21612;DHT22;47005;52.292;13.452;2023-06-22T10:05:40;24.20;92.00
21612;DHT22;47005;52.292;13.452;2023-06-22T10:08:06;24.20;91.80
21612;DHT22;47005;52.292;13.452;2023-06-22T10:10:33;24.20;92.00
21612;DHT22;47005;52.292;13.452;2023-06-22T10:13:07;24.30;92.20
21612;DHT22;47005;52.292;13.452;2023-06-22T10:15:34;24.30;92.00
21612;DHT22;47005;52.292;13.452;2023-06-22T10:18:00;24.30;92.20
21612;DHT22;47005;52.292;13.452;2023-06-22T10:20:26;24.30;91.40
21612;DHT22;47005;52.292;13.452;2023-06-22T10:22:52;24.30;91.20
21612;DHT22;47005;52.292;13.452;2023-06-22T10:25:17;24.30;91.40
21612;DHT22;47005;52.292;13.452;2023-06-22T10:27:43;24.40;91.50
21612;DHT22;47005;52.292;13.452;2023-06-22T10:30:11;24.40;91.50
21612;DHT22;47005;52.292;13.452;2023-06-22T10:32:38;24.40;91.50
21612;DHT22;47005;52.292;13.452;2023-06-22T10:35:05;24.40;91.70
21612;DHT22;47005;52.292;13.452;2023-06-22T10:37:31;24.40;90.60
21612;DHT22;47005;52.292;13.452;2023-06-22T10:39:56;24.40;91.20
21612;DHT22;47005;52.292;13.452;2023-06-22T10:42:22;24.40;91.00
21612;DHT22;47005;52.292;13.452;2023-06-22T10:44:48;24.40;91.10
21612;DHT22;47005;52.292;13.452;2023-06-22T10:47:14;24.40;91.10
21612;DHT22;47005;52.292;13.452;2023-06-22T10:49:40;24.50;90.40
21612;DHT22;47005;52.292;13.452;2023-06-22T10:52:09;24.50;90.90
21612;DHT22;47005;52.292;13.452;2023-06-22T10:54:36;24.50;90.70
21612;DHT22;47005;52.292;13.452;2023-06-22T10:57:02;24.60;90.50
21612;DHT22;47005;52.292;13.452;2023-06-22T10:59:28;24.60;90.70
21612;DHT22;47005;52.292;13.452;2023-06-22T11:01:58;24.60;90.40
21612;DHT22;47005;52.292;13.452;2023-06-22T11:04:24;24.60;90.10
21612;DHT22;47005;52.292;13.452;2023-06-22T11:06:50;24.60;89.60
21612;DHT22;47005;52.292;13.452;2023-06-22T11:09:16;24.60;90.10
21612;DHT22;47005;52.292;13.452;2023-06-22T11:11:51;24.70;89.20
21612;DHT22;47005;52.292;13.452;2023-06-22T11:14:19;24.70;89.50
21612;DHT22;47005;52.292;13.452;2023-06-22T11:16:45;24.70;88.90
21612;DHT22;47005;52.292;13.452;2023-06-22T11:19:12;24.70;89.20
21612;DHT22;47005;52.292;13.452;2023-06-22T11:21:37;24.80;87.50
21612;DHT22;47005;52.292;13.452;2023-06-22T11:24:03;24.80;87.90
21612;DHT22;47005;52.292;13.452;2023-06-22T11:26:29;24.80;88.40
21612;DHT22;47005;52.292;13.452;2023-06-22T11:28:55;24.80;88.70
21612;DHT22;47005;52.292;13.452;2023-06-22T11:31:20;24.90;87.60
21612;DHT22;47005;52.292;13.452;2023-06-22T11:33:46;24.90;88.40
21612;DHT22;47005;52.292;13.452;2023-06-22T11:36:14;25.00;87.50
21612;DHT22;47005;52.292;13.452;2023-06-22T11:38:40;25.10;87.60
21612;DHT22;47005;52.292;13.452;2023-06-22T11:41:06;25.20;86.70
21612;DHT22;47005;52.292;13.452;2023-06-22T11:43:33;25.30;85.40
21612;DHT22;47005;52.292;13.452;2023-06-22T11:45:59;25.40;87.10
21612;DHT22;47005;52.292;13.452;2023-06-22T11:48:25;25.50;84.70
21612;DHT22;47005;52.292;13.452;2023-06-22T11:50:51;25.70;85.10
21612;DHT22;47005;52.292;13.452;2023-06-22T11:53:16;25.80;84.20
21612;DHT22;47005;52.292;13.452;2023-06-22T11:55:43;25.90;85.20
21612;DHT22;47005;52.292;13.452;2023-06-22T11:58:09;26.00;83.70
21612;DHT22;47005;52.292;13.452;2023-06-22T12:00:36;26.10;85.30
21612;DHT22;47005;52.292;13.452;2023-06-22T12:03:01;26.20;83.50
21612;DHT22;47005;52.292;13.452;2023-06-22T12:05:27;26.30;81.00
21612;DHT22;47005;52.292;13.452;2023-06-22T12:07:53;26.30;82.70
21612;DHT22;47005;52.292;13.452;2023-06-22T12:10:20;26.40;79.10
21612;DHT22;47005;52.292;13.452;2023-06-22T12:12:45;26.50;80.90
21612;DHT22;47005;52.292;13.452;2023-06-22T12:15:11;26.50;79.20
21612;DHT22;47005;52.292;13.452;2023-06-22T12:17:37;26.60;78.00
21612;DHT22;47005;52.292;13.452;2023-06-22T12:20:04;26.70;77.50
21612;DHT22;47005;52.292;13.452;2023-06-22T12:22:33;26.70;76.30
21612;DHT22;47005;52.292;13.452;2023-06-22T12:24:59;26.70;78.40
21612;DHT22;47005;52.292;13.452;2023-06-22T12:27:25;26.80;76.70
21612;DHT22;47005;52.292;13.452;2023-06-22T12:29:51;26.90;78.60
21612;DHT22;47005;52.292;13.452;2023-06-22T12:32:17;27.00;77.60
21612;DHT22;47005;52.292;13.452;2023-06-22T12:34:44;27.20;78.50
21612;DHT22;47005;52.292;13.452;2023-06-22T12:37:10;27.50;79.20
21612;DHT22;47005;52.292;13.452;2023-06-22T12:39:35;27.60;78.10
21612;DHT22;47005;52.292;13.452;2023-06-22T12:42:01;27.80;75.10
21612;DHT22;47005;52.292;13.452;2023-06-22T12:44:27;27.80;75.20
21612;DHT22;47005;52.292;13.452;2023-06-22T12:46:53;27.90;74.10
21612;DHT22;47005;52.292;13.452;2023-06-22T12:49:19;27.80;70.20
21612;DHT22;47005;52.292;13.452;2023-06-22T12:51:45;27.70;72.50
21612;DHT22;47005;52.292;13.452;2023-06-22T12:54:11;27.70;69.70
21612;DHT22;47005;52.292;13.452;2023-06-22T12:56:40;27.60;72.00
21612;DHT22;47005;52.292;13.452;2023-06-22T12:59:07;27.50;70.50
21612;DHT22;47005;52.292;13.452;2023-06-22T13:01:33;27.40;72.80
21612;DHT22;47005;52.292;13.452;2023-06-22T13:03:59;27.40;72.20
21612;DHT22;47005;52.292;13.452;2023-06-22T13:06:25;27.30;74.30
21612;DHT22;47005;52.292;13.452;2023-06-22T13:08:50;27.30;74.30
21612;DHT22;47005;52.292;13.452;2023-06-22T13:11:16;27.20;71.00
21612;DHT22;47005;52.292;13.452;2023-06-22T13:13:43;27.20;71.70
21612;DHT22;47005;52.292;13.452;2023-06-22T13:16:09;27.20;73.40
21612;DHT22;47005;52.292;13.452;2023-06-22T13:18:34;27.10;72.70
21612;DHT22;47005;52.292;13.452;2023-06-22T13:21:04;27.10;70.40
21612;DHT22;47005;52.292;13.452;2023-06-22T13:23:30;27.10;72.80
21612;DHT22;47005;52.292;13.452;2023-06-22T13:25:57;27.10;74.10
21612;DHT22;47005;52.292;13.452;2023-06-22T13:28:23;27.20;75.80
21612;DHT22;47005;52.292;13.452;2023-06-22T13:30:49;27.20;73.80
21612;DHT22;47005;52.292;13.452;2023-06-22T13:33:15;27.30;73.10
21612;DHT22;47005;52.292;13.452;2023-06-22T13:35:41;27.30;74.20
21612;DHT22;47005;52.292;13.452;2023-06-22T13:38:09;27.40;73.30
21612;DHT22;47005;52.292;13.452;2023-06-22T13:40:36;27.40;73.20
21612;DHT22;47005;52.292;13.452;2023-06-22T13:43:05;27.40;70.60
21612;DHT22;47005;52.292;13.452;2023-06-22T13:45:31;27.40;72.00
21612;DHT22;47005;52.292;13.452;2023-06-22T13:47:57;27.40;70.80
21612;DHT22;47005;52.292;13.452;2023-06-22T13:50:22;27.30;70.30
21612;DHT22;47005;52.292;13.452;2023-06-22T13:52:48;27.30;70.40
21612;DHT22;47005;52.292;13.452;2023-06-22T13:55:14;27.30;70.00
21612;DHT22;47005;52.292;13.452;2023-06-22T13:57:40;27.30;71.40
21612;DHT22;47005;52.292;13.452;2023-06-22T14:00:07;27.20;71.30
21612;DHT22;47005;52.292;13.452;2023-06-22T14:02:34;27.20;72.40
21612;DHT22;47005;52.292;13.452;2023-06-22T14:05:00;27.20;71.80
21612;DHT22;47005;52.292;13.452;2023-06-22T14:07:25;27.20;71.70
21612;DHT22;47005;52.292;13.452;2023-06-22T14:09:51;27.20;71.80
21612;DHT22;47005;52.292;13.452;2023-06-22T14:12:17;27.20;70.20
21612;DHT22;47005;52.292;13.452;2023-06-22T14:14:46;27.10;71.10
21612;DHT22;47005;52.292;13.452;2023-06-22T14:17:11;27.10;70.70
21612;DHT22;47005;52.292;13.452;2023-06-22T14:19:37;27.10;72.10
21612;DHT22;47005;52.292;13.452;2023-06-22T14:22:03;27.10;72.40
21612;DHT22;47005;52.292;13.452;2023-06-22T14:24:28;27.10;71.40
21612;DHT22;47005;52.292;13.452;2023-06-22T14:26:55;27.10;70.70
21612;DHT22;47005;52.292;13.452;2023-06-22T14:29:21;27.10;70.40
21612;DHT22;47005;52.292;13.452;2023-06-22T14:31:48;27.10;70.60
21612;DHT22;47005;52.292;13.452;2023-06-22T14:34:14;27.10;70.90
21612;DHT22;47005;52.292;13.452;2023-06-22T14:36:40;27.10;71.70
21612;DHT22;47005;52.292;13.452;2023-06-22T14:39:06;27.10;72.30
21612;DHT22;47005;52.292;13.452;2023-06-22T14:41:32;27.10;70.40
21612;DHT22;47005;52.292;13.452;2023-06-22T14:43:57;27.10;69.60
21612;DHT22;47005;52.292;13.452;2023-06-22T14:46:23;27.20;70.70
21612;DHT22;47005;52.292;13.452;2023-06-22T14:48:49;27.20;71.60
21612;DHT22;47005;52.292;13.452;2023-06-22T14:51:15;27.10;70.80
21612;DHT22;47005;52.292;13.452;2023-06-22T14:53:41;27.20;71.20
21612;DHT22;47005;52.292;13.452;2023-06-22T14:56:07;27.20;70.50
21612;DHT22;47005;52.292;13.452;2023-06-22T14:58:33;27.20;70.40
21612;DHT22;47005;52.292;13.452;2023-06-22T15:01:00;27.20;70.10
21612;DHT22;47005;52.292;13.452;2023-06-22T15:03:26;27.20;70.00
21612;DHT22;47005;52.292;13.452;2023-06-22T15:05:54;27.20;69.60
21612;DHT22;47005;52.292;13.452;2023-06-22T15:08:21;27.20;71.00
21612;DHT22;47005;52.292;13.452;2023-06-22T15:10:46;27.20;71.60
21612;DHT22;47005;52.292;13.452;2023-06-22T15:13:12;27.20;70.70
21612;DHT22;47005;52.292;13.452;2023-06-22T15:15:38;27.20;71.50
21612;DHT22;47005;52.292;13.452;2023-06-22T15:18:04;27.20;72.40
21612;DHT22;47005;52.292;13.452;2023-06-22T15:20:29;27.20;71.70